RYR2YT EKCH-EIDW
Flight info
| Callsign | RYR2YT |
|---|---|
| Flight time | N/A |
| Altitude | 36000 |
| Route | LANGO2A LANGO M611 ALASA DCT GIKOG DCT MIMVA DCT OTBED L60 PENIL UL28 LELDO M145 BAGSO BAGSO4L |
| Aircraft | B738/M-SDE2/1200 |
Departure
| Time | 2026-04-24 15:07 |
|---|---|
| Airport | Copenhagen Kastrup Airport (EKCH) |
Arrival
| Time | N/A |
|---|---|
| Airport | Dublin Airport (EIDW) |
| Time | Latitude | Longitude | Altitude | Speed | Heading |
|---|---|---|---|---|---|
| 2026-04-24 14:19 | 55.62522 | 12.65682 | 23 ft | 0 kts | 359° |
| 2026-04-24 14:55 | 55.62512 | 12.65682 | 25 ft | 3 kts | 359° |
| 2026-04-24 14:55 | 55.62492 | 12.65683 | 24 ft | 3 kts | 359° |
| 2026-04-24 14:55 | 55.62475 | 12.65684 | 26 ft | 2 kts | 358° |
| 2026-04-24 14:56 | 55.62457 | 12.65689 | 28 ft | 3 kts | 325° |
| 2026-04-24 14:56 | 55.62447 | 12.65711 | 28 ft | 3 kts | 279° |
| 2026-04-24 14:56 | 55.62446 | 12.65741 | 32 ft | 1 kts | 269° |
| 2026-04-24 14:56 | 55.62446 | 12.65750 | 35 ft | 0 kts | 269° |
| 2026-04-24 14:59 | 55.62446 | 12.65736 | 30 ft | 5 kts | 269° |
| 2026-04-24 14:59 | 55.62445 | 12.65602 | 23 ft | 13 kts | 269° |
| 2026-04-24 14:59 | 55.62442 | 12.65443 | 23 ft | 13 kts | 269° |
| 2026-04-24 15:00 | 55.62441 | 12.65288 | 23 ft | 12 kts | 269° |
| 2026-04-24 15:00 | 55.62386 | 12.65202 | 27 ft | 12 kts | 178° |
| 2026-04-24 15:00 | 55.62302 | 12.65200 | 24 ft | 12 kts | 182° |
| 2026-04-24 15:00 | 55.62221 | 12.65189 | 23 ft | 12 kts | 198° |
| 2026-04-24 15:01 | 55.62152 | 12.65112 | 26 ft | 12 kts | 213° |
| 2026-04-24 15:01 | 55.62074 | 12.65023 | 23 ft | 14 kts | 213° |
| 2026-04-24 15:01 | 55.61987 | 12.64922 | 23 ft | 16 kts | 213° |
| 2026-04-24 15:01 | 55.61890 | 12.64811 | 23 ft | 17 kts | 213° |
| 2026-04-24 15:02 | 55.61786 | 12.64692 | 24 ft | 18 kts | 213° |
| 2026-04-24 15:02 | 55.61675 | 12.64564 | 23 ft | 19 kts | 213° |
| 2026-04-24 15:02 | 55.61563 | 12.64436 | 24 ft | 19 kts | 213° |
| 2026-04-24 15:02 | 55.61455 | 12.64311 | 23 ft | 18 kts | 213° |
| 2026-04-24 15:03 | 55.61386 | 12.64230 | 24 ft | 18 kts | 213° |
| 2026-04-24 15:03 | 55.61251 | 12.64076 | 23 ft | 17 kts | 213° |
| 2026-04-24 15:03 | 55.61152 | 12.63963 | 24 ft | 16 kts | 213° |
| 2026-04-24 15:03 | 55.61058 | 12.63856 | 23 ft | 16 kts | 213° |
| 2026-04-24 15:04 | 55.60969 | 12.63754 | 23 ft | 15 kts | 213° |
| 2026-04-24 15:04 | 55.60883 | 12.63655 | 23 ft | 14 kts | 213° |
| 2026-04-24 15:04 | 55.60801 | 12.63560 | 25 ft | 14 kts | 213° |
| 2026-04-24 15:04 | 55.60721 | 12.63468 | 23 ft | 13 kts | 213° |
| 2026-04-24 15:05 | 55.60647 | 12.63377 | 23 ft | 13 kts | 218° |
| 2026-04-24 15:05 | 55.60577 | 12.63270 | 23 ft | 14 kts | 220° |
| 2026-04-24 15:05 | 55.60503 | 12.63156 | 23 ft | 14 kts | 221° |
| 2026-04-24 15:05 | 55.60418 | 12.63134 | 24 ft | 13 kts | 143° |
| 2026-04-24 15:06 | 55.60358 | 12.63253 | 25 ft | 13 kts | 131° |
| 2026-04-24 15:06 | 55.60368 | 12.63389 | 28 ft | 13 kts | 44° |
| 2026-04-24 15:06 | 55.60529 | 12.63637 | 23 ft | 71 kts | 40° |
| 2026-04-24 15:06 | 55.61122 | 12.64558 | 24 ft | 154 kts | 40° |
| 2026-04-24 15:07 | 55.61725 | 12.65500 | 214 ft | 187 kts | 37° |
| 2026-04-24 15:07 | 55.62754 | 12.67074 | 1058 ft | 208 kts | 35° |
| 2026-04-24 15:07 | 55.63891 | 12.68828 | 1799 ft | 219 kts | 37° |
| 2026-04-24 15:07 | 55.65002 | 12.70556 | 2491 ft | 208 kts | 34° |
| 2026-04-24 15:08 | 55.66096 | 12.72209 | 3208 ft | 206 kts | 34° |
| 2026-04-24 15:08 | 55.67188 | 12.73840 | 3906 ft | 205 kts | 34° |
| 2026-04-24 15:08 | 55.68289 | 12.75480 | 4522 ft | 211 kts | 34° |
| 2026-04-24 15:08 | 55.69444 | 12.77199 | 5076 ft | 222 kts | 35° |
| 2026-04-24 15:09 | 55.70643 | 12.79082 | 5630 ft | 239 kts | 44° |
| 2026-04-24 15:09 | 55.71371 | 12.81877 | 6172 ft | 267 kts | 79° |
| 2026-04-24 15:09 | 55.71053 | 12.85216 | 6755 ft | 290 kts | 115° |
| 2026-04-24 15:09 | 55.69691 | 12.87924 | 7309 ft | 304 kts | 149° |
| 2026-04-24 15:10 | 55.67739 | 12.89153 | 7894 ft | 302 kts | 171° |
| 2026-04-24 15:10 | 55.65679 | 12.89975 | 8480 ft | 308 kts | 167° |
| 2026-04-24 15:10 | 55.63612 | 12.91093 | 9042 ft | 312 kts | 164° |
| 2026-04-24 15:10 | 55.61484 | 12.91785 | 9543 ft | 311 kts | 187° |
| 2026-04-24 15:11 | 55.59457 | 12.90831 | 10134 ft | 297 kts | 213° |
| 2026-04-24 15:11 | 55.57830 | 12.88707 | 10661 ft | 287 kts | 232° |
| 2026-04-24 15:11 | 55.56468 | 12.86142 | 11245 ft | 287 kts | 232° |
| 2026-04-24 15:11 | 55.55069 | 12.83568 | 11793 ft | 295 kts | 232° |
| 2026-04-24 15:12 | 55.53615 | 12.80911 | 12370 ft | 305 kts | 232° |
| 2026-04-24 15:12 | 55.51448 | 12.74546 | 13458 ft | 307 kts | 266° |
| 2026-04-24 15:12 | 55.51255 | 12.70782 | 14100 ft | 312 kts | 270° |
| 2026-04-24 15:13 | 55.51126 | 12.66947 | 14612 ft | 320 kts | 270° |
| 2026-04-24 15:13 | 55.51002 | 12.62985 | 15153 ft | 327 kts | 270° |
| 2026-04-24 15:13 | 55.50868 | 12.58930 | 15704 ft | 334 kts | 270° |
| 2026-04-24 15:13 | 55.50724 | 12.54806 | 16260 ft | 340 kts | 270° |
| 2026-04-24 15:14 | 55.50569 | 12.50585 | 16830 ft | 346 kts | 270° |
| 2026-04-24 15:14 | 55.50407 | 12.46324 | 17409 ft | 351 kts | 269° |
| 2026-04-24 15:14 | 55.50240 | 12.41998 | 17984 ft | 356 kts | 269° |
| 2026-04-24 15:14 | 55.50069 | 12.37594 | 18498 ft | 362 kts | 269° |
| 2026-04-24 15:15 | 55.49893 | 12.33144 | 18979 ft | 367 kts | 269° |
| 2026-04-24 15:15 | 55.49712 | 12.28619 | 19440 ft | 372 kts | 269° |
| 2026-04-24 15:15 | 55.49198 | 12.24063 | 19685 ft | 391 kts | 253° |
| 2026-04-24 15:15 | 55.47838 | 12.19828 | 20213 ft | 401 kts | 239° |
| 2026-04-24 15:16 | 55.46141 | 12.15914 | 20725 ft | 405 kts | 238° |
| 2026-04-24 15:16 | 55.44404 | 12.11932 | 21042 ft | 412 kts | 238° |
| 2026-04-24 15:16 | 55.42671 | 12.07950 | 21460 ft | 416 kts | 238° |
| 2026-04-24 15:16 | 55.40918 | 12.03908 | 22062 ft | 415 kts | 238° |
| 2026-04-24 15:17 | 55.39165 | 11.99851 | 22564 ft | 418 kts | 238° |
| 2026-04-24 15:17 | 55.37395 | 11.95738 | 22943 ft | 423 kts | 238° |
| 2026-04-24 15:17 | 55.35612 | 11.91596 | 23363 ft | 426 kts | 238° |
| 2026-04-24 15:17 | 55.33812 | 11.87423 | 23816 ft | 428 kts | 238° |
| 2026-04-24 15:18 | 55.32010 | 11.83252 | 24228 ft | 430 kts | 238° |
| 2026-04-24 15:18 | 55.30199 | 11.79066 | 24643 ft | 431 kts | 238° |
| 2026-04-24 15:18 | 55.28379 | 11.74864 | 25037 ft | 433 kts | 238° |
| 2026-04-24 15:18 | 55.26553 | 11.70659 | 25400 ft | 435 kts | 238° |
| 2026-04-24 15:19 | 55.24752 | 11.66476 | 25766 ft | 435 kts | 239° |
| 2026-04-24 15:19 | 55.23039 | 11.62097 | 26126 ft | 435 kts | 242° |
| 2026-04-24 15:19 | 55.21404 | 11.57625 | 26506 ft | 436 kts | 243° |
| 2026-04-24 15:19 | 55.19788 | 11.53118 | 26866 ft | 437 kts | 243° |
| 2026-04-24 15:20 | 55.18165 | 11.48607 | 27187 ft | 439 kts | 242° |
| 2026-04-24 15:20 | 55.16528 | 11.44104 | 27502 ft | 441 kts | 242° |
| 2026-04-24 15:20 | 55.14852 | 11.39542 | 27844 ft | 442 kts | 242° |
| 2026-04-24 15:20 | 55.13178 | 11.35022 | 28174 ft | 444 kts | 242° |
| 2026-04-24 15:21 | 55.11496 | 11.30503 | 28516 ft | 444 kts | 242° |
| 2026-04-24 15:21 | 55.09833 | 11.26053 | 28982 ft | 442 kts | 241° |
| 2026-04-24 15:21 | 55.08156 | 11.21578 | 29583 ft | 437 kts | 241° |
| 2026-04-24 15:21 | 55.06499 | 11.17159 | 30139 ft | 433 kts | 241° |
| 2026-04-24 15:22 | 55.04852 | 11.12771 | 30483 ft | 433 kts | 241° |
| 2026-04-24 15:22 | 55.03199 | 11.08369 | 30730 ft | 434 kts | 241° |
| 2026-04-24 15:22 | 55.01541 | 11.03961 | 30998 ft | 435 kts | 241° |
| 2026-04-24 15:23 | 54.98240 | 10.95213 | 31852 ft | 429 kts | 241° |
| 2026-04-24 15:23 | 54.94981 | 10.86521 | 32401 ft | 428 kts | 244° |
| 2026-04-24 15:23 | 54.93882 | 10.81745 | 32440 ft | 425 kts | 261° |
| 2026-04-24 15:24 | 54.91915 | 10.67128 | 33738 ft | 416 kts | 258° |
| 2026-04-24 15:25 | 54.90637 | 10.58997 | 34026 ft | 420 kts | 258° |
| 2026-04-24 15:25 | 54.88873 | 10.47649 | 34794 ft | 414 kts | 258° |
| 2026-04-24 15:26 | 54.86634 | 10.33063 | 35416 ft | 415 kts | 257° |
| 2026-04-24 15:27 | 54.84410 | 10.18670 | 36054 ft | 415 kts | 257° |
| 2026-04-24 15:27 | 54.82154 | 10.04190 | 36099 ft | 414 kts | 257° |
| 2026-04-24 15:29 | 54.77412 | 9.75237 | 36107 ft | 417 kts | 256° |
| 2026-04-24 15:31 | 54.71688 | 9.41433 | 36129 ft | 419 kts | 255° |
| 2026-04-24 15:33 | 54.65028 | 9.02827 | 36143 ft | 419 kts | 255° |
| 2026-04-24 15:34 | 54.59902 | 8.79289 | 36137 ft | 421 kts | 249° |
| 2026-04-24 15:35 | 54.54207 | 8.56085 | 36144 ft | 421 kts | 249° |
| 2026-04-24 15:36 | 54.51952 | 8.46848 | 36166 ft | 422 kts | 249° |
| 2026-04-24 15:36 | 54.48532 | 8.32904 | 36154 ft | 423 kts | 249° |
| 2026-04-24 15:37 | 54.46240 | 8.23611 | 36174 ft | 422 kts | 248° |
| 2026-04-24 15:37 | 54.43938 | 8.14316 | 36197 ft | 422 kts | 248° |
| 2026-04-24 15:38 | 54.41641 | 8.05080 | 36198 ft | 422 kts | 248° |
| 2026-04-24 15:38 | 54.39325 | 7.95808 | 36182 ft | 422 kts | 248° |
| 2026-04-24 15:39 | 54.37007 | 7.86567 | 36190 ft | 422 kts | 248° |
| 2026-04-24 15:39 | 54.34679 | 7.77325 | 36209 ft | 421 kts | 248° |
| 2026-04-24 15:40 | 54.32346 | 7.68101 | 36194 ft | 421 kts | 248° |
| 2026-04-24 15:40 | 54.30011 | 7.58909 | 36216 ft | 420 kts | 248° |
| 2026-04-24 15:41 | 54.27672 | 7.49735 | 36206 ft | 420 kts | 248° |
| 2026-04-24 15:41 | 54.25329 | 7.40587 | 36214 ft | 419 kts | 247° |
| 2026-04-24 15:42 | 54.22982 | 7.31459 | 36214 ft | 419 kts | 247° |
| 2026-04-24 15:42 | 54.20628 | 7.22339 | 36221 ft | 419 kts | 247° |
| 2026-04-24 15:43 | 54.18273 | 7.13254 | 36220 ft | 418 kts | 247° |
| 2026-04-24 15:43 | 54.15907 | 7.04165 | 36225 ft | 418 kts | 247° |
| 2026-04-24 15:44 | 54.13558 | 6.95175 | 36233 ft | 418 kts | 247° |
| 2026-04-24 15:44 | 54.11182 | 6.86118 | 36232 ft | 418 kts | 247° |
| 2026-04-24 15:45 | 54.08802 | 6.77082 | 36237 ft | 418 kts | 246° |
| 2026-04-24 15:45 | 54.06416 | 6.68060 | 36238 ft | 418 kts | 246° |
| 2026-04-24 15:46 | 54.04024 | 6.59051 | 36248 ft | 417 kts | 246° |
| 2026-04-24 15:46 | 54.01628 | 6.50060 | 36238 ft | 418 kts | 246° |
| 2026-04-24 15:47 | 53.99223 | 6.41075 | 36261 ft | 417 kts | 246° |
| 2026-04-24 15:47 | 53.96808 | 6.32086 | 36237 ft | 418 kts | 246° |
| 2026-04-24 15:48 | 53.94408 | 6.23188 | 36268 ft | 417 kts | 246° |
| 2026-04-24 15:48 | 53.91980 | 6.14223 | 36242 ft | 418 kts | 246° |
| 2026-04-24 15:49 | 53.89549 | 6.05279 | 36272 ft | 417 kts | 246° |
| 2026-04-24 15:49 | 53.87113 | 5.96352 | 36253 ft | 417 kts | 246° |
| 2026-04-24 15:50 | 53.84672 | 5.87441 | 36274 ft | 417 kts | 246° |
| 2026-04-24 15:50 | 53.82222 | 5.78533 | 36267 ft | 417 kts | 246° |
| 2026-04-24 15:51 | 53.79766 | 5.69640 | 36269 ft | 417 kts | 246° |
| 2026-04-24 15:51 | 53.77311 | 5.60782 | 36284 ft | 416 kts | 246° |
| 2026-04-24 15:52 | 53.74843 | 5.51909 | 36276 ft | 416 kts | 245° |
| 2026-04-24 15:52 | 53.72391 | 5.43128 | 36288 ft | 416 kts | 245° |
| 2026-04-24 15:53 | 53.69916 | 5.34301 | 36281 ft | 416 kts | 245° |
| 2026-04-24 15:53 | 53.67435 | 5.25484 | 36304 ft | 415 kts | 245° |
| 2026-04-24 15:54 | 53.64950 | 5.16686 | 36282 ft | 416 kts | 245° |
| 2026-04-24 15:54 | 53.62880 | 5.09382 | 36308 ft | 415 kts | 245° |
| 2026-04-24 15:55 | 53.60386 | 5.00614 | 36295 ft | 415 kts | 245° |
| 2026-04-24 15:55 | 53.57880 | 4.91836 | 36309 ft | 415 kts | 245° |
| 2026-04-24 15:56 | 53.55375 | 4.83093 | 36298 ft | 415 kts | 245° |
| 2026-04-24 15:56 | 53.52859 | 4.74346 | 36306 ft | 415 kts | 245° |
| 2026-04-24 15:57 | 53.50357 | 4.65681 | 36309 ft | 415 kts | 245° |
| 2026-04-24 15:57 | 53.47831 | 4.56960 | 36297 ft | 415 kts | 245° |
| 2026-04-24 15:58 | 53.45299 | 4.48257 | 36312 ft | 415 kts | 245° |
| 2026-04-24 15:58 | 53.42758 | 4.39550 | 36289 ft | 415 kts | 245° |
| 2026-04-24 15:59 | 53.40215 | 4.30869 | 36313 ft | 415 kts | 245° |
| 2026-04-24 15:59 | 53.37663 | 4.22193 | 36293 ft | 415 kts | 244° |
| 2026-04-24 16:00 | 53.35106 | 4.13527 | 36312 ft | 414 kts | 244° |
| 2026-04-24 16:00 | 53.32543 | 4.04875 | 36298 ft | 414 kts | 244° |
| 2026-04-24 16:01 | 53.29993 | 3.96297 | 36307 ft | 414 kts | 244° |
| 2026-04-24 16:01 | 53.27425 | 3.87690 | 36309 ft | 414 kts | 244° |
| 2026-04-24 16:02 | 53.24853 | 3.79098 | 36311 ft | 414 kts | 244° |
| 2026-04-24 16:02 | 53.22273 | 3.70514 | 36324 ft | 413 kts | 244° |
| 2026-04-24 16:03 | 53.19688 | 3.61941 | 36314 ft | 413 kts | 244° |
| 2026-04-24 16:03 | 53.17100 | 3.53380 | 36332 ft | 413 kts | 244° |
| 2026-04-24 16:04 | 53.14501 | 3.44823 | 36305 ft | 414 kts | 244° |
| 2026-04-24 16:04 | 53.11919 | 3.36233 | 36303 ft | 415 kts | 248° |
| 2026-04-24 16:05 | 53.10628 | 3.26984 | 36412 ft | 412 kts | 264° |
| 2026-04-24 16:05 | 53.10595 | 3.22191 | 36245 ft | 418 kts | 274° |
| 2026-04-24 16:06 | 53.11673 | 3.07835 | 36367 ft | 417 kts | 275° |
| 2026-04-24 16:07 | 53.12669 | 2.93361 | 36291 ft | 421 kts | 274° |
| 2026-04-24 16:07 | 53.13647 | 2.78801 | 36309 ft | 422 kts | 274° |
| 2026-04-24 16:08 | 53.14613 | 2.64177 | 36295 ft | 424 kts | 274° |
| 2026-04-24 16:09 | 53.15566 | 2.49486 | 36304 ft | 426 kts | 274° |
| 2026-04-24 16:09 | 53.16188 | 2.39731 | 36315 ft | 426 kts | 274° |
| 2026-04-24 16:11 | 53.17724 | 2.15093 | 36314 ft | 428 kts | 274° |
| 2026-04-24 16:11 | 53.18326 | 2.05211 | 36302 ft | 429 kts | 274° |
| 2026-04-24 16:12 | 53.19214 | 1.90362 | 36317 ft | 429 kts | 274° |
| 2026-04-24 16:13 | 53.20084 | 1.75484 | 36307 ft | 430 kts | 274° |
| 2026-04-24 16:14 | 53.21215 | 1.55671 | 36308 ft | 431 kts | 274° |
| 2026-04-24 16:14 | 53.22045 | 1.40730 | 36314 ft | 431 kts | 274° |
| 2026-04-24 16:15 | 53.22858 | 1.25755 | 36311 ft | 432 kts | 274° |
| 2026-04-24 16:16 | 53.23655 | 1.10741 | 36313 ft | 433 kts | 274° |
| 2026-04-24 16:17 | 53.24930 | 0.85895 | 36312 ft | 435 kts | 273° |
| 2026-04-24 16:18 | 53.25927 | 0.65721 | 36309 ft | 436 kts | 273° |
| 2026-04-24 16:19 | 53.26655 | 0.50545 | 36306 ft | 437 kts | 273° |
| 2026-04-24 16:20 | 53.27365 | 0.35327 | 36302 ft | 438 kts | 273° |
| 2026-04-24 16:20 | 53.28053 | 0.20148 | 36300 ft | 439 kts | 273° |
| 2026-04-24 16:21 | 53.28729 | 0.04866 | 36294 ft | 440 kts | 273° |
| 2026-04-24 16:22 | 53.29546 | -0.05290 | 36298 ft | 441 kts | 279° |
| 2026-04-24 16:22 | 53.31233 | -0.20440 | 36305 ft | 442 kts | 279° |
| 2026-04-24 16:23 | 53.32282 | -0.30583 | 36290 ft | 442 kts | 278° |
| 2026-04-24 16:24 | 53.33817 | -0.45814 | 36289 ft | 443 kts | 278° |
| 2026-04-24 16:24 | 53.34832 | -0.55896 | 36285 ft | 443 kts | 278° |
| 2026-04-24 16:25 | 53.35849 | -0.66075 | 36292 ft | 443 kts | 278° |
| 2026-04-24 16:25 | 53.36840 | -0.76255 | 36284 ft | 443 kts | 278° |
| 2026-04-24 16:26 | 53.38308 | -0.91528 | 36284 ft | 443 kts | 279° |
| 2026-04-24 16:27 | 53.39813 | -1.06813 | 36273 ft | 443 kts | 279° |
| 2026-04-24 16:27 | 53.40786 | -1.17002 | 36279 ft | 443 kts | 279° |
| 2026-04-24 16:28 | 53.41738 | -1.27223 | 36277 ft | 443 kts | 279° |
| 2026-04-24 16:28 | 53.43161 | -1.42533 | 36275 ft | 443 kts | 279° |
| 2026-04-24 16:29 | 53.44109 | -1.52694 | 36268 ft | 443 kts | 279° |
| 2026-04-24 16:30 | 53.45817 | -1.71465 | 36259 ft | 443 kts | 279° |
| 2026-04-24 16:30 | 53.46735 | -1.81683 | 36273 ft | 443 kts | 279° |
| 2026-04-24 16:31 | 53.47632 | -1.91925 | 36265 ft | 443 kts | 279° |
| 2026-04-24 16:31 | 53.48515 | -2.02164 | 36257 ft | 443 kts | 279° |
| 2026-04-24 16:32 | 53.49393 | -2.12407 | 36263 ft | 443 kts | 279° |
| 2026-04-24 16:32 | 53.50262 | -2.22634 | 36262 ft | 442 kts | 279° |
| 2026-04-24 16:33 | 53.51126 | -2.32857 | 36267 ft | 441 kts | 279° |
| 2026-04-24 16:33 | 53.51981 | -2.43066 | 36252 ft | 441 kts | 279° |
| 2026-04-24 16:34 | 53.52828 | -2.53283 | 36272 ft | 440 kts | 279° |
| 2026-04-24 16:34 | 53.53664 | -2.63479 | 36254 ft | 439 kts | 279° |
| 2026-04-24 16:35 | 53.54074 | -2.68534 | 36096 ft | 434 kts | 279° |
| 2026-04-24 16:35 | 53.54480 | -2.73552 | 35512 ft | 433 kts | 279° |
| 2026-04-24 16:35 | 53.54880 | -2.78531 | 35160 ft | 427 kts | 279° |
| 2026-04-24 16:35 | 53.55271 | -2.83419 | 34755 ft | 427 kts | 280° |
| 2026-04-24 16:36 | 53.55665 | -2.88367 | 34338 ft | 427 kts | 280° |
| 2026-04-24 16:36 | 53.56059 | -2.93329 | 33895 ft | 427 kts | 280° |
| 2026-04-24 16:36 | 53.56448 | -2.98267 | 33430 ft | 427 kts | 280° |
| 2026-04-24 16:36 | 53.56836 | -3.03221 | 32979 ft | 427 kts | 279° |
| 2026-04-24 16:37 | 53.57226 | -3.08181 | 32541 ft | 430 kts | 281° |
| 2026-04-24 16:37 | 53.57813 | -3.13144 | 32076 ft | 435 kts | 285° |
| 2026-04-24 16:37 | 53.58298 | -3.16419 | 31821 ft | 437 kts | 286° |
| 2026-04-24 16:37 | 53.59335 | -3.23060 | 31257 ft | 439 kts | 286° |
| 2026-04-24 16:38 | 53.60112 | -3.28042 | 30833 ft | 440 kts | 286° |
| 2026-04-24 16:38 | 53.60878 | -3.33049 | 30430 ft | 441 kts | 285° |
| 2026-04-24 16:38 | 53.61628 | -3.38060 | 29958 ft | 442 kts | 285° |
| 2026-04-24 16:38 | 53.62369 | -3.43085 | 29485 ft | 442 kts | 285° |
| 2026-04-24 16:39 | 53.63097 | -3.48081 | 28991 ft | 436 kts | 285° |
| 2026-04-24 16:39 | 53.63814 | -3.53034 | 28492 ft | 435 kts | 285° |
| 2026-04-24 16:39 | 53.64531 | -3.58005 | 27993 ft | 438 kts | 284° |
| 2026-04-24 16:39 | 53.65007 | -3.61310 | 27660 ft | 440 kts | 284° |
| 2026-04-24 16:40 | 53.65730 | -3.66341 | 27164 ft | 442 kts | 284° |
| 2026-04-24 16:40 | 53.66455 | -3.71396 | 26693 ft | 444 kts | 284° |
| 2026-04-24 16:40 | 53.67179 | -3.76470 | 26206 ft | 445 kts | 284° |
| 2026-04-24 16:40 | 53.67903 | -3.81552 | 25739 ft | 446 kts | 284° |
| 2026-04-24 16:41 | 53.68861 | -3.88304 | 25132 ft | 447 kts | 284° |
| 2026-04-24 16:41 | 53.69347 | -3.91741 | 24826 ft | 447 kts | 284° |
| 2026-04-24 16:41 | 53.70065 | -3.96832 | 24350 ft | 443 kts | 284° |
| 2026-04-24 16:41 | 53.70771 | -4.01854 | 23881 ft | 438 kts | 284° |
| 2026-04-24 16:42 | 53.71467 | -4.06841 | 23338 ft | 434 kts | 283° |
| 2026-04-24 16:42 | 53.71967 | -4.11859 | 22726 ft | 433 kts | 275° |
| 2026-04-24 16:42 | 53.72128 | -4.16917 | 22253 ft | 428 kts | 272° |
| 2026-04-24 16:42 | 53.72249 | -4.21917 | 21764 ft | 425 kts | 272° |
| 2026-04-24 16:43 | 53.72391 | -4.26900 | 21212 ft | 424 kts | 272° |
| 2026-04-24 16:43 | 53.72555 | -4.31864 | 20731 ft | 422 kts | 273° |
| 2026-04-24 16:43 | 53.72729 | -4.36783 | 20290 ft | 419 kts | 272° |
| 2026-04-24 16:43 | 53.72902 | -4.41620 | 20336 ft | 415 kts | 272° |
| 2026-04-24 16:44 | 53.73074 | -4.46495 | 20270 ft | 412 kts | 272° |
| 2026-04-24 16:44 | 53.73241 | -4.51303 | 19947 ft | 409 kts | 272° |
| 2026-04-24 16:44 | 53.73404 | -4.56067 | 19691 ft | 404 kts | 272° |
| 2026-04-24 16:44 | 53.73563 | -4.60748 | 19419 ft | 393 kts | 272° |
| 2026-04-24 16:45 | 53.73716 | -4.65295 | 19145 ft | 385 kts | 272° |
| 2026-04-24 16:45 | 53.73865 | -4.69806 | 18836 ft | 387 kts | 272° |
| 2026-04-24 16:45 | 53.74016 | -4.74383 | 18305 ft | 390 kts | 271° |
| 2026-04-24 16:45 | 53.74163 | -4.78920 | 17872 ft | 384 kts | 271° |
| 2026-04-24 16:46 | 53.74307 | -4.83397 | 17423 ft | 378 kts | 271° |
| 2026-04-24 16:46 | 53.74453 | -4.87814 | 16979 ft | 374 kts | 271° |
| 2026-04-24 16:46 | 53.74598 | -4.92184 | 16540 ft | 371 kts | 271° |
| 2026-04-24 16:46 | 53.74741 | -4.96521 | 16111 ft | 368 kts | 271° |
| 2026-04-24 16:47 | 53.74882 | -5.00809 | 15709 ft | 365 kts | 271° |
| 2026-04-24 16:47 | 53.75019 | -5.05074 | 15334 ft | 362 kts | 271° |
| 2026-04-24 16:47 | 53.75152 | -5.09251 | 14935 ft | 359 kts | 271° |
| 2026-04-24 16:47 | 53.75139 | -5.13459 | 14506 ft | 357 kts | 262° |
| 2026-04-24 16:48 | 53.74658 | -5.17533 | 14121 ft | 352 kts | 250° |
| 2026-04-24 16:48 | 53.73855 | -5.21409 | 13783 ft | 348 kts | 248° |
| 2026-04-24 16:48 | 53.73050 | -5.25255 | 13336 ft | 347 kts | 249° |
| 2026-04-24 16:48 | 53.72258 | -5.29098 | 12924 ft | 346 kts | 249° |
| 2026-04-24 16:49 | 53.71464 | -5.32984 | 12510 ft | 345 kts | 249° |
| 2026-04-24 16:49 | 53.70690 | -5.36794 | 12189 ft | 341 kts | 249° |
| 2026-04-24 16:49 | 53.69942 | -5.40478 | 11909 ft | 331 kts | 249° |
| 2026-04-24 16:49 | 53.69208 | -5.44089 | 11586 ft | 320 kts | 248° |
| 2026-04-24 16:50 | 53.68734 | -5.46415 | 11387 ft | 313 kts | 248° |
| 2026-04-24 16:50 | 53.67823 | -5.50998 | 10980 ft | 303 kts | 251° |
| 2026-04-24 16:50 | 53.67335 | -5.54418 | 10674 ft | 296 kts | 255° |
| 2026-04-24 16:50 | 53.66922 | -5.57776 | 10407 ft | 288 kts | 255° |
| 2026-04-24 16:51 | 53.66483 | -5.61034 | 10119 ft | 282 kts | 252° |
| 2026-04-24 16:51 | 53.65945 | -5.64171 | 9744 ft | 276 kts | 248° |
| 2026-04-24 16:51 | 53.65266 | -5.67186 | 9313 ft | 274 kts | 243° |
| 2026-04-24 16:51 | 53.64421 | -5.70064 | 8808 ft | 274 kts | 237° |